Tiempo atmosférico en la estación meteorológica de Somosierra, Madrid (1450 m.)



Fecha
DESCASC
Temp. máxima en grados centígrados (hora)
DESCASC
Temp. mínima en grados centígrados (hora)
DESCASC
Temp. media en grados centígrados
DESCASC
Racha de viento máxima en m/sg (hora)
DESCASC
Velocidad máxima media en intervalos de 10 minutos(hora)
DESCASC
Precipitaciones diarias en mm
DESCASC
Precipitaciones de 00:00 a 06:00 en mm
DESCASC
Precipitaciones de 06:00 a 12:00 en mm
DESCASC
Precipitaciones de 12:00 a 18:00 en mm
DESCASC
Precipitaciones de 18:00 a 24:00 en mm
DESCASC
18-04-2019 9.7 (00:30) 3.2 (23:59) 6.4 15.56 (02:30) 8.33 (01:20) 41.2 10.2 15.6 5.2 10.2
17-04-2019 16.5 (16:00) 5.4 (07:40) 11 15.83 (20:10) 9.17 (20:00) 5.4 0 0 0 5.4
16-04-2019 14.2 (17:40) 1.4 (00:00) 7.8 10.56 (15:50) 6.11 (16:00) 0 0 0 0 0
15-04-2019 16 (17:10) 4.3 (00:00) 10.2 13.89 (17:10) 7.5 (17:10) 0 0 0 0 0
14-04-2019 16.7 (17:40) 5.8 (00:00) 11.3 6.67 (16:00) 1.94 (23:40) 1 0 1 0 0
13-04-2019 16 (17:30) -0.1 (00:00) 7.9 6.39 (16:10) 2.22 (17:30) 0 0 0 0 0
12-04-2019 10.6 (18:00) -1.9 (-00:0) 4.4 10.83 (01:00) 2.78 (00:40) 0 0 0 0 0
11-04-2019 7.8 (19:00) -0.8 (-00:0) 3.5 11.67 (12:30) 4.44 (14:10) 0 0 0 0 0
10-04-2019 5.5 (16:20) -0.4 (00:00) 2.5 10 (02:10) 3.33 (01:50) 16 2.8 1.8 11.4 0
09-04-2019 3.8 (13:20) 0.4 (00:00) 2.1 11.67 (17:10) 3.33 (16:50) 12.8 4 3.2 5.4 0.2
08-04-2019 8.1 (16:00) -0.5 (-00:0) 3.8 11.67 (13:20) 3.33 (22:30) 31.8 7.4 22.2 1.4 0.8
07-04-2019 4.9 (16:40) -2.1 (-00:0) 1.4 11.39 (00:10) 3.33 (00:30) 22.4 0 0 21.8 0.6
06-04-2019 2.1 (16:20) -2.4 (-00:0) -0.2 14.17 (16:20) 5.56 (18:00) 19.4 0 0.2 16.2 3
05-04-2019 2.6 (01:10) -2.2 (-00:0) 0.2 11.11 (13:30) 6.67 (02:40) 20 0 0 15.4 4.6
04-04-2019 8.4 (16:20) -5.7 (-00:0) 1.3 10.56 (16:50) 5.28 (17:50) 0 0 0 0 0
03-04-2019 7.6 (17:40) -2.5 (-00:0) 2.5 11.67 (19:10) 4.17 (19:50) 0 0 0 0 0
02-04-2019 13.2 (17:30) 2.3 (00:00) 7.7 7.78 (15:10) 4.72 (15:10) 0 0 0 0 0
01-04-2019 -- (--) -- (--) -- -- (--) -- (--) -- -- -- -- 0
31-03-2019 -- (--) -- (--) -- -- (--) -- (--) -- -- -- -- --
30-03-2019 -- (--) -- (--) -- -- (--) -- (--) -- -- -- -- --
29-03-2019 -- (--) -- (--) -- -- (--) -- (--) -- -- -- -- --
28-03-2019 -- (--) -- (--) -- -- (--) -- (--) -- -- -- -- --
27-03-2019 -- (--) -- (--) -- -- (--) -- (--) -- -- -- -- --
26-03-2019 -- (--) -- (--) -- -- (--) -- (--) -- -- -- -- --
25-03-2019 -- (--) -- (--) -- -- (--) -- (--) -- -- -- -- --
24-03-2019 -- (--) -- (--) -- -- (--) -- (--) -- -- -- -- --
23-03-2019 -- (--) -- (--) -- -- (--) -- (--) -- -- -- -- --
22-03-2019 -- (--) -- (--) -- -- (--) -- (--) -- -- -- -- --
21-03-2019 -- (--) -- (--) -- -- (--) -- (--) -- -- -- -- --

Gráficas

Temp. máximas Temp. mínimas Temp. medias Precipitaciones Rachas de viento máximas Velocidades máximas media en intervalos de 10 minutos

Datos horarios

Fecha y hora oficial Temperatura (ºC) Velocidad del viento (km/h) Dirección del viento Racha (km/h) Dirección de racha Precipitación (mm) Presión (hPa) Tendencia (hPa) Humedad (%)
2019-04-19 23:00:00 8.6 14 Sudeste 50 Sudeste 0 857.9 2.6 53
2019-04-19 22:00:00 8.6 17 Sudeste 54 Sudeste 0 857.1 2.4 57
2019-04-19 21:00:00 8.1 12 Sudeste 60 Sudeste 0 856.1 1.6 68
2019-04-19 20:00:00 8.5 9 Sudeste 47 Sudeste 0 855.3 0.5 74
2019-04-19 19:00:00 8.9 13 Este 49 Este 0.2 854.7 -0.5 76
2019-04-19 18:00:00 7.6 10 Este 42 Sudeste 1.2 854.5 -0.9 89
2019-04-19 17:00:00 7 9 Este 44 Este 1.8 854.8 -0.6 91
2019-04-19 16:00:00 5.5 2 Norte 13 Norte 0.4 855.2 0.3 97
2019-04-19 15:00:00 6 3 Norte 11 Sur 0.8 855.4 0.9 93
2019-04-19 14:00:00 6.4 4 Sur 14 Sur 1 855.4 1.6 87
2019-04-19 13:00:00 7.2 4 Sudeste 19 Este 0.2 854.9 1.2 82
2019-04-19 12:00:00 6.7 6 Sudeste 29 Sudeste 0 854.5 1.7 85
2019-04-19 11:00:00 5.7 6 Sudeste 32 Sudeste 0 853.8 1.2 89
2019-04-19 10:00:00 4.6 8 Sudeste 38 Sudeste 0 853.7 1.8 93
2019-04-19 09:00:00 4.1 7 Sudeste 27 Sudeste 0 852.8 1.2 95
2019-04-19 08:00:00 3.6 7 Sudeste 25 Sudeste 0 852.6 1.2 97
2019-04-19 07:00:00 3.3 9 Sur 20 Sudeste 0.2 851.9 0.7 99
2019-04-19 06:00:00 3.3 9 Sur 24 Sur 0 851.6 0.5 99
2019-04-19 05:00:00 3.4 10 Sur 28 Sudeste 0.2 851.4 -0.3 99
2019-04-19 04:00:00 3.5 9 Sudeste 26 Sudeste 0 851.2 -0.3 98
2019-04-19 03:00:00 3.4 6 Sur 22 Sur 0.8 851.1 -0.1 97
2019-04-19 02:00:00 3.6 8 Sudeste 24 Sudeste 0.2 851.7 0.4 97
2019-04-19 01:00:00 3.3 5 Sur 20 Sudeste 0 851.5 0.7 97
2019-04-19 00:00:00 3.2 6 Sur 17 Sudoeste 1.6 851.2 0.9 98
2019-04-18 23:00:00 3.8 6 Sur 16 Sur 3.8 851.3 0.9 99
2019-04-18 22:00:00 4.4 4 Sur 10 Sur 3 850.8 0 99
2019-04-18 21:00:00 4.9 0 Calma 7 Sur 1.8 850.3 0 98
2019-04-18 20:00:00 5.4 3 Sur 13 Sudoeste 0 850.4 0.1 96
2019-04-18 19:00:00 5.6 8 Sur 15 Sudoeste 0 850.8 0.1 95
2019-04-18 18:00:00 5.8 8 Sudoeste 20 Sur 0 850.3 -0.1 93
2019-04-18 17:00:00 4.8 8 Sur 20 Sur 0.8 850.3 -0.8 99
2019-04-18 16:00:00 5.7 10 Sur 26 Sudeste 0 850.7 -1 91
2019-04-18 15:00:00 5.9 9 Sur 23 Sudoeste 0.6 850.4 -2 93
2019-04-18 14:00:00 4.6 7 Sur 16 Sudoeste 0.4 851.1 0 96
2019-04-18 13:00:00 4.2 0 Calma 14 Sudeste 3.4 851.7 -0.2 95
2019-04-18 12:00:00 3.7 4 Este 15 Este 3.4 852.4 0.9 92
2019-04-18 11:00:00 4.2 0 Calma 6 Sudoeste 0.4 851.1 -0.7 98
2019-04-18 10:00:00 4 3 Sudoeste 8 Sudoeste 0.8 851.9 0.9 97
2019-04-18 09:00:00 3.5 2 Sur 18 Sudeste 2.8 851.5 0.5 95
2019-04-18 08:00:00 3.6 6 Sudeste 22 Sur 5.8 851.8 0.8 96
2019-04-18 07:00:00 4.1 6 Sudeste 23 Sudeste 2.4 851 0.5 98
2019-04-18 06:00:00 4.3 12 Sur 36 Sur 2 851 0.3 97
2019-04-18 05:00:00 4.8 19 Sur 47 Sur 5.2 851 -0.7 99
2019-04-18 04:00:00 7.4 23 Sur 46 Sudeste 1.2 850.5 -1 98
2019-04-18 03:00:00 8.1 23 Sur 56 Sur 1.2 850.7 -0.9 93
2019-04-18 02:00:00 8.3 21 Sur 55 Sur 0.6 851.7 -0.2 93
2019-04-18 01:00:00 9.2 27 Sur 50 Sur 0 851.5 -0.3 86
2019-04-18 00:00:00 8.9 16 Sur 42 Sur 0 851.6 1.4 91
2019-04-17 23:00:00 8.6 21 Sur 39 Sur 5 851.9 2.7 95
2019-04-17 22:00:00 10.7 16 Sur 44 Sur 0.4 851.8 2.9 70
2019-04-17 21:00:00 12.6 27 Sur 57 Sur 0 850.2 1 56
2019-04-17 20:00:00 14.5 33 Sur 54 Sur 0 849.2 -0.5 45
2019-04-17 19:00:00 14.9 27 Sur 50 Sur 0 848.9 -1.8 42
2019-04-17 18:00:00 14.8 18 Sur 39 Sur 0 849.2 -2 46
2019-04-17 17:00:00 16 18 Sur 41 Sur 0 849.7 -1.7 42
2019-04-17 16:00:00 16.4 27 Sur 46 Sur 0 850.7 -1.6 38
2019-04-17 15:00:00 15.2 23 Sur 42 Sudeste 0 851.2 -0.7 50
2019-04-17 14:00:00 9.5 19 Sur 37 Sur 0 851.4 -0.3 76
2019-04-17 13:00:00 8 20 Sur 40 Sur 0 852.3 0.9 86
2019-04-17 12:00:00 6.9 23 Sur 43 Sur 0 851.9 -0.4 91
2019-04-17 11:00:00 6.3 26 Sur 53 Sur 0 851.7 0.2 92
2019-04-17 10:00:00 6.2 30 Sur 50 Sur 0 851.4 -0.9 90
2019-04-17 09:00:00 5.8 17 Sur 45 Sur 0 852.3 0.3 92
2019-04-17 08:00:00 6.4 23 Sur 44 Sur 0 851.5 -0.9 92
2019-04-17 07:00:00 6.3 21 Sur 42 Sur 0 852.3 -0.3 90
2019-04-17 06:00:00 6.2 23 Sur 42 Sur 0 852 -1.2 92
2019-04-17 05:00:00 6 26 Sur 39 Sur 0 852.4 -1.6 95
2019-04-17 04:00:00 6.5 26 Sur 48 Sur 0 852.6 -1.3 92
2019-04-17 03:00:00 7.6 29 Sur 48 Sur 0 853.2 -1 85
2019-04-17 02:00:00 7 21 Sur 44 Sur 0 854 -0.4 65
2019-04-17 01:00:00 10.8 20 Sur 41 Sur 0 853.9 -0.4 43
2019-04-17 00:00:00 10.5 18 Sur 36 Sur 0 854.2 0.1 45
2019-04-16 23:00:00 10.4 18 Sur 36 Sudeste 0 854.4 0 45
2019-04-16 22:00:00 10.1 18 Sur 31 Sur 0 854.3 -0.5 45
2019-04-16 21:00:00 10.4 15 Sur 34 Sur 0 854.1 -0.8 42
2019-04-16 20:00:00 12.3 20 Sur 37 Sur 0 854.4 -0.8 41
2019-04-16 19:00:00 12.4 19 Sur 36 Sudeste 0 854.8 -0.8 40
2019-04-16 18:00:00 13 17 Sur 36 Sudoeste 0 854.9 -0.9 40
2019-04-16 17:00:00 12.8 19 Sur 35 Sur 0 855.2 -1 40
2019-04-16 16:00:00 12.5 22 Sur 38 Sur 0 855.6 -0.8 40
2019-04-16 15:00:00 12.4 19 Sur 37 Sur 0 855.8 -0.6 47
2019-04-16 14:00:00 11.7 17 Sur 34 Sur 0 856.2 -0.1 50
2019-04-16 13:00:00 10.3 18 Sur 31 Sudoeste 0 856.4 0 55
2019-04-16 12:00:00 9.6 13 Sur 26 Sur 0 856.4 0.3 59
2019-04-16 11:00:00 8.5 11 Sur 22 Sur 0 856.3 0.3 63
2019-04-16 10:00:00 7.2 8 Sur 16 Sur 0 856.4 0.4 65
2019-04-16 09:00:00 3.5 0 Calma 5 Nordeste 0 856.1 0.3 93
2019-04-16 08:00:00 1.6 0 Calma 6 Norte 0 856 0 97
2019-04-16 07:00:00 2.4 0 Calma 5 Sur 0 856 0.3 92
2019-04-16 06:00:00 4.1 0 Calma 14 Noroeste 0 855.8 0.7 97
2019-04-16 05:00:00 4.5 2 Noroeste 11 Norte 0 856 0.5 98
2019-04-16 04:00:00 4.7 0 Calma 17 Nordeste 0 855.7 -0.1 98
2019-04-16 03:00:00 4.7 3 Norte 18 Norte 0 855.1 -0.1 97
2019-04-16 02:00:00 4.5 9 Norte 25 Noroeste 0 855.5 1 95
2019-04-16 01:00:00 4.5 2 Norte 22 Norte 0 855.8 1.6 90
2019-04-16 00:00:00 4.4 5 Norte 25 Norte 0 855.2 1.6 86
2019-04-15 23:00:00 5 13 Norte 31 Norte 0 854.5 1.7 82
2019-04-15 22:00:00 5.3 4 Norte 35 Oeste 0 854.2 2.3 88
2019-04-15 21:00:00 5.9 5 Norte 39 Norte 0 853.6 2.9 85
2019-04-15 20:00:00 7.6 13 Noroeste 37 Noroeste 0 852.8 2.2 84
2019-04-15 19:00:00 14 15 Oeste 44 Sudoeste 0 851.9 0.9 50
2019-04-15 18:00:00 14.6 18 Sur 50 Sudoeste 0 850.7 -0.9 48
2019-04-15 17:00:00 15.3 26 Sur 41 Sur 0 850.6 -1.3 50
2019-04-15 16:00:00 14.1 20 Sur 41 Sur 0 851 -1.6 76
2019-04-15 15:00:00 11.7 14 Sudeste 48 Sur 0 851.6 -1.5 81
2019-04-15 14:00:00 11.3 23 Sur 40 Sur 0 851.9 -0.9 84
2019-04-15 13:00:00 11.2 12 Sur 34 Sur 0 852.6 -0.2 82
2019-04-15 12:00:00 11.2 19 Sur 34 Sur 0 853.1 0.1 83
2019-04-15 11:00:00 10.9 18 Sur 33 Sur 0 852.8 -0.4 83
2019-04-15 10:00:00 11.6 18 Sur 32 Sur 0 852.8 -0.1 80
2019-04-15 09:00:00 9.8 14 Sur 25 Sur 0 853 -0.4 88
2019-04-15 08:00:00 8.6 10 Sur 23 Sur 0 853.2 -0.7 89
2019-04-15 07:00:00 8.2 11 Sur 24 Sudoeste 0 852.9 -1.6 89
2019-04-15 06:00:00 8.7 17 Sur 26 Sur 0 853.4 -1.4 89
2019-04-15 05:00:00 8.1 14 Sur 21 Sur 0 853.9 -1.8 89
2019-04-15 04:00:00 8.2 13 Sur 21 Sur 0 854.5 -1.2 86
2019-04-15 03:00:00 9.1 8 Sur 13 Sur 0 854.8 -1.2 81
2019-04-15 02:00:00 9.2 8 Sur 15 Sur 0 855.7 -0.4 76
2019-04-15 01:00:00 9.9 6 Sur 15 Sudeste 0 855.7 -0.4 76
2019-04-15 00:00:00 10 4 Sur 17 Sudeste 0 856 -0.2 76
2019-04-14 23:00:00 9.2 0 Calma 5 Norte 0 856.1 0 76
2019-04-14 22:00:00 10 0 Calma 4 Norte 0 856.1 0.4 73
2019-04-14 21:00:00 10.7 0 Calma 5 Norte 0 856.2 0.4 69
2019-04-14 20:00:00 13.6 0 Calma 13 Norte 0 856.1 0.2 60
2019-04-14 19:00:00 15 3 Norte 22 Noroeste 0 855.7 -0.8 56
2019-04-14 18:00:00 15.7 5 Noroeste 19 Noroeste 0 855.8 -0.8 54
2019-04-14 17:00:00 15.6 5 Norte 21 Norte 0 855.9 -0.7 56
2019-04-14 16:00:00 14.7 5 Norte 24 Norte 0 856.5 -0.3 59
2019-04-14 15:00:00 14 4 Norte 18 Norte 0 856.6 -0.7 67
2019-04-14 14:00:00 12 3 Noroeste 21 Oeste 0 856.6 -0.4 73
2019-04-14 13:00:00 9.7 0 Calma 12 Noroeste 0 856.8 0.4 88
2019-04-14 12:00:00 8.7 3 Noroeste 14 Noroeste 0 857.3 -- 93
2019-04-14 11:00:00 8.2 0 Calma 12 Noroeste 0 857 0.5 98
2019-04-14 10:00:00 7.9 3 Noroeste 12 Noroeste 0 856.4 0.2 98
2019-04-14 09:00:00 -- 0 Calma 11 Norte 0.8 -- -- --
2019-04-14 08:00:00 7 2 Norte 13 Noroeste 0.2 856.5 -0.2 97
2019-04-14 07:00:00 7.2 0 Calma 17 Oeste 0 856.2 -1 95
2019-04-14 06:00:00 7.6 2 Norte 16 Oeste 0 856.4 -1.1 86
2019-04-14 05:00:00 7.4 3 Norte 15 Nordeste 0 856.7 -0.5 80
2019-04-14 04:00:00 7.7 3 Norte 15 Noroeste 0 857.2 -0.2 73
2019-04-14 03:00:00 8 4 Noroeste 17 Noroeste 0 857.5 -0.1 55
2019-04-14 02:00:00 7.7 3 Norte 12 Norte 0 857.2 -0.4 41
2019-04-14 01:00:00 6.2 0 Calma 6 Norte 0 857.4 0.1 41
2019-04-14 00:00:00 6.2 0 Calma 6 Oeste 0 857.6 0.5 39
2019-04-13 23:00:00 7.6 0 Calma 5 Nordeste 0 857.6 0.7 36
2019-04-13 22:00:00 8.5 0 Calma 10 Norte 0 857.3 0.7 30
2019-04-13 21:00:00 9.5 4 Norte 11 Noroeste 0 857.1 0.6 26
2019-04-13 20:00:00 11.6 4 Noroeste 17 Noroeste 0 856.9 0.4 24
2019-04-13 19:00:00 15.1 4 Noroeste 20 Oeste 0 856.6 -0.3 24
2019-04-13 18:00:00 15.3 5 Noroeste 23 Oeste 0 856.5 -0.3 24
2019-04-13 17:00:00 15.7 3 Noroeste 23 Norte 0 856.5 -0.6 24
2019-04-13 16:00:00 14.6 7 Norte 21 Noroeste 0 856.9 -0.3 24
2019-04-13 15:00:00 13.9 3 Norte 17 Noroeste 0 856.8 -0.7 26
2019-04-13 14:00:00 11.7 5 Norte 21 Norte 0 857.1 -0.3 26
2019-04-13 13:00:00 10.8 5 Norte 20 Noroeste 0 857.2 0.1 32
2019-04-13 12:00:00 9.5 6 Norte 20 Norte 0 857.5 0.3 38
2019-04-13 11:00:00 7.8 6 Norte 17 Norte 0 857.4 0.6 42
2019-04-13 10:00:00 5.6 7 Norte 18 Norte 0 857.1 0.8 52
2019-04-13 09:00:00 2.1 3 Norte 12 Norte 0 857.2 1 64
2019-04-13 08:00:00 0 2 Norte 13 Norte 0 856.8 0.8 62
2019-04-13 07:00:00 0.1 2 Norte 13 Nordeste 0 856.3 0.3 66
2019-04-13 06:00:00 1 0 Calma 12 Norte 0 856.2 -0.1 65
2019-04-13 05:00:00 1.5 2 Norte 15 Norte 0 856 -0.7 63
2019-04-13 04:00:00 1.9 4 Norte 14 Norte 0 856 -0.7 63
2019-04-13 03:00:00 1.8 3 Norte 15 Norte 0 856.3 -0.3 63
2019-04-13 02:00:00 1.9 3 Norte 17 Norte 0 856.7 -0.1 62
2019-04-13 01:00:00 1.9 5 Norte 18 Norte 0 856.7 0.3 63
2019-04-13 00:00:00 2.2 4 Norte 14 Norte 0 856.6 0.8 64
2019-04-12 23:00:00 2.5 3 Norte 17 Noroeste 0 856.8 1.1 62
2019-04-12 22:00:00 4.5 6 Noroeste 23 Noroeste 0 856.4 0.7 55
2019-04-12 21:00:00 5.1 3 Noroeste 20 Noroeste 0 855.8 0.3 54
2019-04-12 20:00:00 8.4 3 Noroeste 23 Norte 0 855.7 0.9 45
2019-04-12 19:00:00 9.7 5 Norte 29 Norte 0 855.7 -0.1 42
2019-04-12 18:00:00 9.9 7 Norte 30 Norte 0 855.5 -0.9 42
2019-04-12 17:00:00 9.5 7 Norte 30 Norte 0 854.8 -1.6 46
2019-04-12 16:00:00 9.5 4 Noroeste 31 Norte 0 855.8 -0.3 49
2019-04-12 15:00:00 8.2 8 Norte 29 Nordeste 0 856.4 0.2 51
2019-04-12 14:00:00 7.5 8 Norte 29 Norte 0 856.4 0 55
2019-04-12 13:00:00 6.2 7 Norte 30 Noroeste 0 856.1 0.5 60
2019-04-12 12:00:00 4.6 8 Norte 22 Norte 0 856.2 0.7 69
2019-04-12 11:00:00 2.1 6 Norte 25 Norte 0 856.4 1.2 89
2019-04-12 10:00:00 0.9 7 Norte 20 Nordeste 0 855.6 0.5 92
2019-04-12 09:00:00 0 4 Norte 20 Norte 0 855.5 0.5 93
2019-04-12 08:00:00 -1.4 5 Norte 17 Noroeste 0 855.2 -0.1 98
2019-04-12 07:00:00 -1.7 4 Norte 17 Norte 0 855.1 -0.3 99
2019-04-12 06:00:00 -1.5 3 Norte 16 Norte 0 855 -0.5 98
2019-04-12 05:00:00 -1.3 2 Norte 17 Norte 0 855.3 -0.4 97
2019-04-12 04:00:00 -0.4 5 Norte 20 Noroeste 0 855.4 -0.2 95
2019-04-12 03:00:00 0.2 6 Norte 28 Norte 0 855.5 -0.4 89
2019-04-12 02:00:00 1.6 5 Norte 27 Norte 0 855.7 -0.3 76
2019-04-12 01:00:00 2.3 10 Norte 39 Norte 0 855.6 -0.5 72
2019-04-12 00:00:00 2.1 5 Norte 30 Norte 0 855.9 0.4 76
2019-04-11 23:00:00 1.9 2 Norte 23 Noroeste 0 856 0.7 86
2019-04-11 22:00:00 2.1 5 Norte 19 Norte 0 856.1 1.1 83
2019-04-11 21:00:00 2.9 3 Norte 28 Noroeste 0 855.5 0.5 72
2019-04-11 20:00:00 4.5 7 Norte 32 Norte 0 855.3 0.2 59
2019-04-11 19:00:00 7.3 9 Norte 37 Norte 0 855 -0.7 54
2019-04-11 18:00:00 5.5 13 Norte 36 Norte 0 855 -0.4 56
2019-04-11 17:00:00 6.9 12 Norte 33 Norte 0 855.1 -0.3 60
2019-04-11 16:00:00 5.3 8 Norte 35 Noroeste 0 855.7 0.1 62
2019-04-11 15:00:00 5.2 10 Norte 39 Noroeste 0 855.4 -0.4 62
2019-04-11 14:00:00 4.5 15 Norte 38 Norte 0 855.4 -0.1 63
2019-04-11 13:00:00 4.4 13 Norte 42 Norte 0 855.6 0.7 71
2019-04-11 12:00:00 2.9 11 Norte 28 Norte 0 855.8 1 89
2019-04-11 11:00:00 0.1 10 Norte 30 Noroeste 0 855.5 0.7 99
2019-04-11 10:00:00 -0.3 11 Norte 31 Noroeste 0 854.9 0.8 99
2019-04-11 09:00:00 -0.7 9 Norte 29 Norte 0 854.8 0.5 99
2019-04-11 08:00:00 -0.8 5 Noroeste 23 Norte 0 854.8 0.4 99
2019-04-11 07:00:00 -0.6 6 Norte 26 Norte 0 854.1 -0.2 99
2019-04-11 06:00:00 -0.5 5 Norte 22 Norte 0 854.3 0 99
2019-04-11 05:00:00 -0.5 5 Norte 19 Oeste 0 854.4 -0.1 99
2019-04-11 04:00:00 -0.3 6 Norte 25 Norte 0 854.3 0.3 99
2019-04-11 03:00:00 -0.1 5 Norte 21 Noroeste 0 854.3 0.2 98
2019-04-11 02:00:00 -0.1 4 Norte 23 Norte 0 854.5 0.7 98
2019-04-11 01:00:00 0.3 6 Norte 26 Norte 0 854 0.6 95
2019-04-11 00:00:00 0.6 7 Norte 32 Norte 0 854.1 1.6 92
2019-04-10 23:00:00 2 9 Norte 30 Noroeste 0 853.8 1.9 88
2019-04-10 22:00:00 2.8 9 Norte 29 Noroeste 0 853.4 1.9 86
2019-04-10 21:00:00 3.1 4 Noroeste 21 Noroeste 0 852.5 1.2 81
2019-04-10 20:00:00 3.5 3 Norte 22 Noroeste 0 851.9 0.8 76
2019-04-10 19:00:00 4.2 8 Norte 29 Norte 0 851.5 0.2 76
2019-04-10 18:00:00 3.4 8 Norte 32 Norte 0.2 851.3 0.1 81
2019-04-10 17:00:00 3.8 10 Norte 32 Norte 0 851.1 -0.4 85
2019-04-10 16:00:00 5.1 6 Noroeste 32 Norte 0 851.3 -0.1 87
2019-04-10 15:00:00 3.1 6 Norte 26 Norte 7 851.2 -0.1 93
2019-04-10 14:00:00 1.5 7 Noroeste 27 Noroeste 2.8 851.5 0.1 99
2019-04-10 13:00:00 0.2 6 Noroeste 24 Noroeste 1.4 851.4 0.6 99
2019-04-10 12:00:00 -0.2 5 Noroeste 25 Norte 0.4 851.3 0.9 99
2019-04-10 11:00:00 -0.2 7 Noroeste 28 Oeste 0 851.4 1.3 99
2019-04-10 10:00:00 -0.2 5 Noroeste 28 Norte 0 850.8 0.7 99
2019-04-10 09:00:00 -0.2 7 Norte 28 Norte 0.2 850.4 0.2 99
2019-04-10 08:00:00 -0.1 6 Noroeste 28 Noroeste 0.6 850.1 -0.2 99
2019-04-10 07:00:00 -0.1 6 Noroeste 27 Norte 0.6 850.1 -0.2 99
2019-04-10 06:00:00 -0.1 6 Noroeste 32 Noroeste 0.8 850.2 -0.2 99
2019-04-10 05:00:00 0.1 8 Oeste 35 Noroeste 0.6 850.3 -0.2 99
2019-04-10 04:00:00 0.4 6 Oeste 32 Oeste 0.4 850.3 -0.5 99
2019-04-10 03:00:00 0.9 7 Noroeste 36 Noroeste 0.4 850.4 -0.5 99
2019-04-10 02:00:00 1.4 5 Noroeste 36 Norte 0 850.5 -0.1 99
2019-04-10 01:00:00 1.4 9 Noroeste 32 Noroeste 0.6 850.8 0.5 99
2019-04-10 00:00:00 1.7 8 Noroeste 33 Norte 0.2 850.9 0.8 97
2019-04-09 23:00:00 1.9 3 Noroeste 27 Noroeste 0 850.6 1 92
2019-04-09 22:00:00 2.3 0 Calma 17 Oeste 0 850.3 1.3 93
2019-04-09 21:00:00 2.2 0 Calma 19 Norte 0 850.1 1.1 89
2019-04-09 20:00:00 2.3 8 Noroeste 32 Noroeste 0 849.6 0.4 85
2019-04-09 19:00:00 3.1 7 Norte 36 Oeste 0 849 -0.4 76
2019-04-09 18:00:00 3.3 9 Noroeste 42 Oeste 0 849 -0.4 93
2019-04-09 17:00:00 1.7 12 Noroeste 35 Noroeste 0.2 849.2 0.1 96
2019-04-09 16:00:00 2 8 Noroeste 37 Noroeste 1 849.4 -0.1 98
2019-04-09 15:00:00 1.9 8 Oeste 30 Sudoeste 2.6 849.4 -0.3 94
2019-04-09 14:00:00 2.7 10 Oeste 26 Oeste 1 849.1 -1 91
2019-04-09 13:00:00 3.4 5 Sudeste 19 Sudeste 0.6 849.5 -0.6 86
2019-04-09 12:00:00 2.5 7 Sur 28 Sudoeste 0.2 849.7 -0.4 86
2019-04-09 11:00:00 1.9 2 Sudeste 15 Sur 1.4 850.1 0 93
2019-04-09 10:00:00 1.8 3 Sur 15 Sudeste 0.8 850.1 0.2 88
2019-04-09 09:00:00 1.3 0 Calma 9 Sur 0.4 850.1 0 89
2019-04-09 08:00:00 0.5 0 Calma 15 Sur 0 850.1 -0.5 89
2019-04-09 07:00:00 0.9 0 Calma 18 Sudoeste 0.4 849.9 -0.6 94
2019-04-09 06:00:00 1.1 0 Calma 9 Nordeste 0.6 850.1 -0.9 93
2019-04-09 05:00:00 1.1 3 Oeste 16 Oeste 0.6 850.6 -0.4 95
2019-04-09 04:00:00 1 0 Calma 21 Sudoeste 0.8 850.5 -0.3 95
2019-04-09 03:00:00 1.5 4 Oeste 21 Noroeste 1.2 851 0.5 96
2019-04-09 02:00:00 1.7 0 Calma 13 Oeste 0.2 851 0.3 93
2019-04-09 01:00:00 1.6 0 Calma 14 Norte 0.6 850.8 0 93
2019-04-09 00:00:00 1.3 5 Norte 17 Norte 0 850.5 0.7 96
2019-04-08 23:00:00 0.2 0 Calma 36 Noroeste 0.8 850.7 1 95
2019-04-08 22:00:00 3.5 6 Noroeste 26 Noroeste 0 850.8 1.1 72
2019-04-08 21:00:00 3.7 3 Norte 13 Norte 0 849.8 -0.4 76
2019-04-08 20:00:00 5.2 0 Calma 14 Norte 0 849.7 -0.6 72
2019-04-08 19:00:00 6.4 4 Noroeste 12 Noroeste 0 849.7 -0.7 70
2019-04-08 18:00:00 6.1 2 Noroeste 15 Oeste 0 850.2 -0.8 69
2019-04-08 17:00:00 7.4 3 Noroeste 16 Noroeste 0 850.3 -0.9 67
2019-04-08 16:00:00 7.5 6 Sudoeste 22 Sudoeste 0 850.4 -0.7 68
2019-04-08 15:00:00 7.5 7 Oeste 26 Oeste 0 851 0.3 73
2019-04-08 14:00:00 4 2 Noroeste 42 Oeste 0.6 851.2 0.6 93
2019-04-08 13:00:00 4.1 3 Noroeste 17 Norte 0.8 851.1 0.6 93
2019-04-08 12:00:00 3.3 3 Noroeste 18 Oeste 2 850.7 0.5 96
2019-04-08 11:00:00 3.6 4 Sudoeste 19 Oeste 4.4 850.6 0.9 96
2019-04-08 10:00:00 3.3 0 Calma 13 Oeste 4.8 850.5 0.6 99
2019-04-08 09:00:00 1.9 2 Sur 10 Sudeste 3.2 850.2 0.6 99
2019-04-08 08:00:00 1.7 5 Sur 10 Sudeste 3.4 849.7 -0.1 99
2019-04-08 07:00:00 1.2 5 Sur 10 Sur 4.4 849.9 0.2 99
2019-04-08 06:00:00 0.9 3 Sur 9 Sur 1.6 849.6 -0.5 99
2019-04-08 05:00:00 0.9 4 Sur 10 Sudeste 0.8 849.8 -0.5 99
2019-04-08 04:00:00 0.5 4 Sur 9 Sur 1.2 849.7 -0.7 99
2019-04-08 03:00:00 0.5 3 Sudeste 15 Sur 1.2 850.1 -0.5 99
2019-04-08 02:00:00 0.1 6 Sur 12 Sur 1.2 850.3 -0.5 99
2019-04-08 01:00:00 -0.1 5 Sur 13 Sur 1.4 850.4 -0.2 99
2019-04-08 00:00:00 -0.3 7 Sur 13 Sudoeste 0.4 850.6 0.1 99
2019-04-07 23:00:00 -0.4 7 Sur 16 Sur 0 850.8 0.3 99
2019-04-07 22:00:00 -0.4 10 Sur 17 Sur 0 850.6 0.6 99
2019-04-07 21:00:00 0 9 Sur 18 Sur 0.2 850.5 0.7 96
2019-04-07 20:00:00 1.6 5 Sur 14 Sudoeste 0 850.5 1.2 81
2019-04-07 19:00:00 3.2 8 Sudoeste 18 Sur 0 850 0.5 68
2019-04-07 18:00:00 4.5 6 Sur 17 Sur 0 849.8 0.4 55
2019-04-07 17:00:00 4.4 7 Sudoeste 17 Sudoeste 0 849.3 0.4 56
2019-04-07 16:00:00 4.2 9 Sur 26 Sudoeste 4.2 849.5 0.5 59
2019-04-07 15:00:00 4.2 9 Sudoeste 24 Sudoeste 8.2 849.4 1 62
2019-04-07 14:00:00 3.1 8 Sudoeste 21 Sudoeste 8.8 848.9 1.2 71
2019-04-07 13:00:00 0.7 6 Oeste 20 Oeste 0.6 849 2 88
2019-04-07 12:00:00 -0.5 4 Noroeste 28 Noroeste 0 848.4 2.4 95
2019-04-07 11:00:00 -1.5 5 Norte 32 Noroeste 0 847.7 2.4 99
2019-04-07 10:00:00 -1.9 8 Noroeste 32 Noroeste 0 847 2.2 99
2019-04-07 09:00:00 -2 10 Noroeste 36 Noroeste 0 846 2.1 99
2019-04-07 08:00:00 -1.8 9 Noroeste 32 Norte 0 845.3 1.7 99
2019-04-07 07:00:00 -1.8 12 Noroeste 31 Noroeste 0 844.8 1.3 99
2019-04-07 06:00:00 -1.9 8 Noroeste 34 Noroeste 0 843.9 0.5 99
2019-04-07 05:00:00 -1.7 5 Noroeste 27 Noroeste 0 843.6 0.3 99
2019-04-07 04:00:00 -1.4 4 Noroeste 28 Oeste 0 843.5 -0.1 99
2019-04-07 03:00:00 -1.1 6 Noroeste 34 Norte 0 843.4 0.3 99
2019-04-07 02:00:00 -1.1 8 Noroeste 35 Noroeste 0 843.3 0.5 99
2019-04-07 01:00:00 -1 10 Oeste 41 Oeste 0 843.6 1.2 98
2019-04-07 00:00:00 -0.7 0 Calma 33 Oeste 0 843.1 1.7 99
2019-04-06 23:00:00 -0.5 11 Oeste 37 Oeste 0 842.8 1.7 97
2019-04-06 22:00:00 -0.4 5 Noroeste 31 Oeste 0 842.4 1.8 95
2019-04-06 21:00:00 -0.3 6 Oeste 29 Sudoeste 0.2 841.4 0.8 97
2019-04-06 20:00:00 0.1 9 Oeste 36 Oeste 0.6 841.1 1 93
2019-04-06 19:00:00 0.1 8 Oeste 39 Oeste 2.2 840.6 0.4 93
2019-04-06 18:00:00 -0.1 20 Sudoeste 44 Sudoeste 2.6 840.6 0.2 93
2019-04-06 17:00:00 1.8 10 Oeste 51 Oeste 5.2 840.1 -0.3 88
2019-04-06 16:00:00 1.8 9 Sudoeste 44 Sudoeste 2.4 840.2 -0.1 89
2019-04-06 15:00:00 0.8 5 Oeste 35 Sur 3.2 840.4 -0.1 87
2019-04-06 14:00:00 0.5 7 Sudoeste 32 Sudoeste 2.4 840.4 0.3 86
2019-04-06 13:00:00 0 10 Sur 41 Sur 0.4 840.3 0.1 88
2019-04-06 12:00:00 -1 8 Sur 26 Sur 0.2 840.5 0.4 97
2019-04-06 11:00:00 -1.3 5 Sur 23 Sur 0 840.1 0.4 93
2019-04-06 10:00:00 -2.2 5 Sudeste 22 Sur 0 840.2 0.4 95
2019-04-06 09:00:00 -1.7 9 Sudoeste 27 Sudoeste 0 840.1 0.7 94
2019-04-06 08:00:00 -2.3 3 Sudoeste 27 Sudoeste 0 839.7 0.2 90
2019-04-06 07:00:00 -2.3 13 Sudoeste 27 Sur 0 839.8 0.3 93
2019-04-06 06:00:00 -2.2 8 Oeste 26 Sudoeste 0 839.4 -0.1 98
2019-04-06 05:00:00 -2 8 Oeste 29 Sudoeste 0 839.5 -0.5 98
2019-04-06 04:00:00 -2.1 5 Oeste 26 Sudoeste 0 839.5 -0.4 98
2019-04-06 03:00:00 -1.7 4 Sudoeste 28 Sudoeste 0 839.5 -0.2 95
2019-04-06 02:00:00 -1.4 5 Sudoeste 26 Sudoeste 0 840 0.6 96
2019-04-06 01:00:00 -1.3 3 Sudoeste 22 Sudoeste 0 839.9 1.1 95
2019-04-06 00:00:00 -1.3 5 Sudoeste 23 Sudoeste 0 839.7 2 95
2019-04-05 23:00:00 -1.1 4 Sudoeste 17 Oeste 0 839.4 1.9 89
2019-04-05 22:00:00 -1.7 0 Calma 13 Norte 0.2 838.8 1.5 96
2019-04-05 21:00:00 -1.8 3 Norte 19 Norte 0.2 837.7 1 99
2019-04-05 20:00:00 -1.4 4 Norte 28 Noroeste 0.4 837.5 0.6 98
2019-04-05 19:00:00 -0.6 6 Noroeste 24 Noroeste 3.8 837.3 0.5 95
2019-04-05 18:00:00 0.9 0 Calma 13 Nordeste 4.8 836.7 -1.1 91
2019-04-05 17:00:00 1.2 0 Calma 14 Norte 7.2 836.9 -0.3 90
2019-04-05 16:00:00 0 5 Sudoeste 14 Sudeste 0 836.8 -0.3 93
2019-04-05 15:00:00 -1.6 0 Calma 30 Sudoeste 0 837.8 0.4 98
2019-04-05 14:00:00 0 19 Sur 40 Sur 3.2 837.2 -0.4 98
2019-04-05 13:00:00 0.1 17 Sur 34 Sur 0.2 837.1 -0.2 98
2019-04-05 12:00:00 0.2 14 Sur 26 Sur 0 837.4 0.1 99
2019-04-05 11:00:00 -0.2 13 Sur 26 Sur 0 837.6 0.2 99
2019-04-05 10:00:00 -0.4 15 Sur 32 Sur 0 837.3 -0.1 99
2019-04-05 09:00:00 -0.5 17 Sur 34 Sur 0 837.3 0.1 99
2019-04-05 08:00:00 -0.8 13 Sur 28 Sur 0 837.4 -0.2 99
2019-04-05 07:00:00 -0.7 9 Sur 29 Sur 0 837.4 -0.3 99
2019-04-05 06:00:00 -0.5 13 Sur 27 Sur 0 837.2 -1 99
2019-04-05 05:00:00 -0.5 13 Sur 28 Sur 0 837.6 -0.9 99
2019-04-05 04:00:00 -0.4 16 Sur 34 Sur 0 837.7 -1.3 98
2019-04-05 03:00:00 0.2 17 Sur 39 Sur 0 838.2 -0.8 89
2019-04-05 02:00:00 1.7 18 Sur 34 Sur 0 838.5 -1.4 68
2019-04-05 01:00:00 2.5 5 Sur 15 Sudoeste 0 839 -1 55
2019-04-05 00:00:00 1.9 0 Calma 9 Norte 0 839 -1 56
2019-04-04 23:00:00 1.9 0 Calma 14 Norte 0 839.9 -0.1 53
2019-04-04 22:00:00 2.1 3 Noroeste 8 Noroeste 0 840 -0.1 46
2019-04-04 21:00:00 3.7 7 Sur 19 Sur 0 840 -0.2 41
2019-04-04 20:00:00 4.5 14 Sur 25 Sur 0 840 -0.4 39
2019-04-04 19:00:00 5.5 13 Sur 35 Sur 0 840.1 -0.9 38
2019-04-04 18:00:00 6.7 18 Sur 37 Sudoeste 0 840.2 -1.5 36
2019-04-04 17:00:00 7.3 17 Sur 38 Sur 0 840.4 -1.9 37
2019-04-04 16:00:00 7.5 16 Sur 31 Sur 0 841 -1.7 39
2019-04-04 15:00:00 6.5 10 Sur 27 Sur 0 841.7 -1.4 41
2019-04-04 14:00:00 5.3 7 Noroeste 22 Oeste 0 842.3 -1 46
2019-04-04 13:00:00 2.8 6 Norte 20 Nordeste 0 842.7 -0.1 53
2019-04-04 12:00:00 1.8 7 Oeste 21 Noroeste 0 843.1 0.7 59
2019-04-04 11:00:00 -0.1 4 Noroeste 20 Oeste 0 843.3 1.3 67
2019-04-04 10:00:00 -1.4 0 Calma 7 Este 0 842.8 1.1 80
2019-04-04 09:00:00 -5.5 2 Nordeste 14 Noroeste 0 842.4 0.6 96
2019-04-04 08:00:00 -5.4 3 Norte 12 Norte 0 842 0 95
2019-04-04 07:00:00 -4.5 2 Noroeste 20 Norte 0 841.7 -0.3 93
2019-04-04 06:00:00 -4.5 4 Norte 19 Noroeste 0 841.8 -0.6 91
2019-04-04 05:00:00 -4.1 4 Noroeste 17 Norte 0 842 -1.1 87
2019-04-04 04:00:00 -4.7 2 Noroeste 19 Norte 0 842 -1.2 88
2019-04-04 03:00:00 -4.6 3 Norte 12 Norte 0 842.4 -0.9 85
2019-04-04 02:00:00 -3.5 5 Norte 18 Noroeste 0 843.1 -0.4 81
2019-04-04 01:00:00 -3.2 4 Norte 27 Noroeste 0 843.2 0.1 76
2019-04-04 00:00:00 -2.2 6 Norte 29 Norte 0 843.3 0.5 72
2019-04-03 23:00:00 -1.7 6 Norte 23 Norte 0 843.5 0.5 67
2019-04-03 22:00:00 -0.3 8 Norte 30 Nordeste 0 843.1 0.2 63
2019-04-03 21:00:00 1.1 13 Norte 32 Norte 0 842.8 -0.5 63
2019-04-03 20:00:00 2.9 14 Norte 42 Norte 0 843 -0.1 53
2019-04-03 19:00:00 3.9 9 Norte 42 Nordeste 0 842.9 -1.1 43
2019-04-03 18:00:00 5.1 10 Noroeste 32 Norte 0 843.3 -1.4 41
2019-04-03 17:00:00 5 7 Norte 36 Oeste 0 843.1 -2.1 48
2019-04-03 16:00:00 7.1 11 Noroeste 33 Oeste 0 844 -1.7 52
2019-04-03 15:00:00 3.8 9 Noroeste 28 Norte 0 844.7 -1.5 66
2019-04-03 14:00:00 2.2 8 Noroeste 26 Oeste 0 845.2 -1.2 80
2019-04-03 13:00:00 0.9 5 Noroeste 24 Norte 0 845.7 -0.8 89
2019-04-03 12:00:00 1.7 4 Noroeste 19 Noroeste 0 846.2 -0.8 86
2019-04-03 11:00:00 1.8 5 Noroeste 16 Norte 0 846.4 -0.5 87
2019-04-03 10:00:00 1.9 3 Sudoeste 16 Oeste 0 846.5 -0.9 88
2019-04-03 09:00:00 2 0 Calma 13 Sudoeste 0 847 -0.8 83
2019-04-03 08:00:00 1.9 0 Calma 12 Oeste 0 846.9 -1.7 84
2019-04-03 07:00:00 1.7 0 Calma 9 Oeste 0 847.4 -1.6 81
2019-04-03 06:00:00 2.5 0 Calma 8 Norte 0 847.8 -2.4 76
2019-04-03 05:00:00 2.4 0 Calma 6 Nordeste 0 848.6 -1.9 76
2019-04-03 04:00:00 2.5 0 Calma 6 Este 0 849 -2.3 74
2019-04-03 03:00:00 2.4 0 Calma 5 Este 0 850.2 -1.4 73
2019-04-03 02:00:00 3.5 0 Calma 12 Este 0 850.5 -1.1 63
2019-04-03 01:00:00 5 5 Sudoeste 25 Sudoeste 0 851.3 -0.1 51
2019-04-03 00:00:00 6.2 7 Sudoeste 24 Sudoeste 0 851.6 0.2 49
2019-04-02 23:00:00 6.4 3 Sur 15 Sudeste 0 851.6 0.1 49
2019-04-02 22:00:00 7.4 0 Calma 8 Oeste 0 851.4 0.2 54
2019-04-02 21:00:00 8.8 2 Oeste 13 Noroeste 0 851.4 -0.1 50
2019-04-02 20:00:00 10.2 4 Noroeste 21 Oeste 0 851.5 -0.5 48
2019-04-02 19:00:00 10 6 Oeste 21 Sur 0 851.2 -1.1 49
2019-04-02 18:00:00 10.4 10 Sur 26 Sudoeste 0 851.5 -1.3 58
2019-04-02 17:00:00 10.6 5 Sudoeste 14 Sudoeste 0 852 -1.4 56
2019-04-02 16:00:00 9.3 6 Sur 28 Sudoeste 0 852.3 -1.4 60
2019-04-02 15:00:00 9.4 13 Sur 24 Sur 0 852.8 -1 58
2019-04-02 14:00:00 9.4 6 Oeste 19 Sur 0 853.4 -0.4 63
2019-04-02 13:00:00 9.3 9 Oeste 23 Oeste 0 853.7 0.3 63
2019-04-02 12:00:00 9.9 4 Norte 17 Noroeste 0 853.8 0.3 62
2019-04-02 11:00:00 9.1 0 Calma 17 Norte 0 853.8 0.6 66
2019-04-02 10:00:00 7.6 0 Calma 15 Nordeste 0 853.4 0.6 74
2019-04-02 09:00:00 4.1 0 Calma 8 Nordeste 0 853.5 0.4 82
2019-04-02 08:00:00 3.1 0 Calma 11 Este 0 853.2 -0.1 84
2019-04-02 07:00:00 2.7 0 Calma 5 Nordeste 0 852.8 -0.6 86
2019-04-02 06:00:00 3.4 0 Calma 5 Oeste 0 853.1 -0.4 88
2019-04-02 05:00:00 3 0 Calma 5 Sudeste 0 853.3 -0.2 88
2019-04-02 04:00:00 4.1 0 Calma 5 Sudeste 0 853.4 -0.5 90
2019-04-02 03:00:00 4.3 0 Calma 6 Sudeste 0 853.5 -0.3 90
2019-04-02 02:00:00 3.5 0 Calma 2 Sur 0 853.5 0 90
2019-04-02 01:00:00 4.1 0 Calma 3 Sudoeste 0 853.9 0.9 90
2019-04-02 00:00:00 5.6 2 Sur 4 Sur 0 853.8 1.5 86
2019-04-01 23:00:00 5.9 0 Calma 3 Oeste 0 853.5 1.5 84
2019-04-01 22:00:00 6.5 3 Sudeste 10 Sudeste 0 853 1.4 80
2019-04-01 21:00:00 6.1 4 Sudeste 8 Sudeste 0 852.3 0.7 76
2019-04-01 20:00:00 7.7 3 Sur 9 Sur 0 852 0.3 70
2019-04-01 19:00:00 8.8 4 Sudoeste 14 Sudoeste 0 851.6 -0.2 63
2019-04-01 18:00:00 9.4 2 Sur 10 Sudoeste 0 851.6 -0.5 62
2019-04-01 17:00:00 8 0 Calma 14 Sur 0.6 851.7 -0.9 76
2019-04-01 16:00:00 8.1 5 Sur 18 Sur 0 851.8 -- 72
2019-04-01 15:00:00 8 8 Sur 18 Sur 0 852.1 -- 73
2019-04-01 14:00:00 6.1 6 Sudoeste 13 Sudoeste 0 852.6 -- 83
2019-04-01 13:00:00 -- 3 Sur -- -- -- -- -- --
2019-04-01 12:00:00 -- -- -- -- -- -- -- -- --
2019-04-01 11:00:00 -- -- -- -- -- -- -- -- --
2019-04-01 10:00:00 -- -- -- -- -- -- -- -- --
2019-04-01 09:00:00 -- -- -- -- -- -- -- -- --
2019-04-01 08:00:00 -- -- -- -- -- -- -- -- --
2019-04-01 07:00:00 -- -- -- -- -- -- -- -- --
2019-04-01 06:00:00 -- -- -- -- -- -- -- -- --
2019-04-01 05:00:00 -- -- -- -- -- -- -- -- --
2019-04-01 04:00:00 -- -- -- -- -- -- -- -- --
2019-04-01 03:00:00 -- -- -- -- -- -- -- -- --
2019-04-01 02:00:00 -- -- -- -- -- -- -- -- --
2019-04-01 01:00:00 -- -- -- -- -- -- -- -- --
2019-04-01 00:00:00 -- -- -- -- -- -- -- -- --
2019-03-31 23:00:00 -- -- -- -- -- -- -- -- --
2019-03-31 22:00:00 -- -- -- -- -- -- -- -- --
2019-03-31 21:00:00 -- -- -- -- -- -- -- -- --
2019-03-31 20:00:00 -- -- -- -- -- -- -- -- --
2019-03-31 19:00:00 -- -- -- -- -- -- -- -- --
2019-03-31 18:00:00 -- -- -- -- -- -- -- -- --
2019-03-31 17:00:00 -- -- -- -- -- -- -- -- --
2019-03-31 16:00:00 -- -- -- -- -- -- -- -- --
2019-03-31 15:00:00 -- -- -- -- -- -- -- -- --
2019-03-31 14:00:00 -- -- -- -- -- -- -- -- --
2019-03-31 13:00:00 -- -- -- -- -- -- -- -- --
2019-03-31 12:00:00 -- -- -- -- -- -- -- -- --
2019-03-31 11:00:00 -- -- -- -- -- -- -- -- --
2019-03-31 10:00:00 -- -- -- -- -- -- -- -- --
2019-03-31 09:00:00 -- -- -- -- -- -- -- -- --
2019-03-31 08:00:00 -- -- -- -- -- -- -- -- --
2019-03-31 07:00:00 -- -- -- -- -- -- -- -- --
2019-03-31 06:00:00 -- -- -- -- -- -- -- -- --
2019-03-31 05:00:00 -- -- -- -- -- -- -- -- --
2019-03-31 03:00:00 -- -- -- -- -- -- -- -- --
2019-03-31 01:00:00 -- -- -- -- -- -- -- -- --
2019-03-31 00:00:00 -- -- -- -- -- -- -- -- --
2019-03-30 23:00:00 -- -- -- -- -- -- -- -- --
2019-03-30 22:00:00 -- -- -- -- -- -- -- -- --
2019-03-30 21:00:00 -- -- -- -- -- -- -- -- --
2019-03-30 20:00:00 -- -- -- -- -- -- -- -- --
2019-03-30 19:00:00 -- -- -- -- -- -- -- -- --
2019-03-30 18:00:00 -- -- -- -- -- -- -- -- --
2019-03-30 17:00:00 -- -- -- -- -- -- -- -- --
2019-03-30 16:00:00 -- -- -- -- -- -- -- -- --
2019-03-30 15:00:00 -- -- -- -- -- -- -- -- --
2019-03-30 14:00:00 -- -- -- -- -- -- -- -- --
2019-03-30 13:00:00 -- -- -- -- -- -- -- -- --
2019-03-30 12:00:00 -- -- -- -- -- -- -- -- --
2019-03-30 11:00:00 -- -- -- -- -- -- -- -- --
2019-03-30 10:00:00 -- -- -- -- -- -- -- -- --
2019-03-30 09:00:00 -- -- -- -- -- -- -- -- --
2019-03-30 08:00:00 -- -- -- -- -- -- -- -- --
2019-03-30 07:00:00 -- -- -- -- -- -- -- -- --
2019-03-30 06:00:00 -- -- -- -- -- -- -- -- --
2019-03-30 05:00:00 -- -- -- -- -- -- -- -- --
2019-03-30 04:00:00 -- -- -- -- -- -- -- -- --
2019-03-30 03:00:00 -- -- -- -- -- -- -- -- --
2019-03-30 02:00:00 -- -- -- -- -- -- -- -- --
2019-03-30 01:00:00 -- -- -- -- -- -- -- -- --
2019-03-30 00:00:00 -- -- -- -- -- -- -- -- --
2019-03-29 23:00:00 -- -- -- -- -- -- -- -- --
2019-03-29 22:00:00 -- -- -- -- -- -- -- -- --
2019-03-29 21:00:00 -- -- -- -- -- -- -- -- --
2019-03-29 20:00:00 -- -- -- -- -- -- -- -- --
2019-03-29 19:00:00 -- -- -- -- -- -- -- -- --
2019-03-29 18:00:00 -- -- -- -- -- -- -- -- --
2019-03-29 17:00:00 -- -- -- -- -- -- -- -- --
2019-03-29 16:00:00 -- -- -- -- -- -- -- -- --
2019-03-29 15:00:00 -- -- -- -- -- -- -- -- --
2019-03-29 14:00:00 -- -- -- -- -- -- -- -- --
2019-03-29 13:00:00 -- -- -- -- -- -- -- -- --
2019-03-29 12:00:00 -- -- -- -- -- -- -- -- --
2019-03-29 11:00:00 -- -- -- -- -- -- -- -- --
2019-03-29 10:00:00 -- -- -- -- -- -- -- -- --
2019-03-29 09:00:00 -- -- -- -- -- -- -- -- --
2019-03-29 08:00:00 -- -- -- -- -- -- -- -- --
2019-03-29 07:00:00 -- -- -- -- -- -- -- -- --
2019-03-29 06:00:00 -- -- -- -- -- -- -- -- --
2019-03-29 05:00:00 -- -- -- -- -- -- -- -- --
2019-03-29 04:00:00 -- -- -- -- -- -- -- -- --
2019-03-29 03:00:00 -- -- -- -- -- -- -- -- --
2019-03-29 02:00:00 -- -- -- -- -- -- -- -- --
2019-03-29 01:00:00 -- -- -- -- -- -- -- -- --
2019-03-29 00:00:00 -- -- -- -- -- -- -- -- --
2019-03-28 23:00:00 -- -- -- -- -- -- -- -- --
2019-03-28 22:00:00 -- -- -- -- -- -- -- -- --
2019-03-28 21:00:00 -- -- -- -- -- -- -- -- --
2019-03-28 20:00:00 -- -- -- -- -- -- -- -- --
2019-03-28 19:00:00 -- -- -- -- -- -- -- -- --
2019-03-28 18:00:00 -- -- -- -- -- -- -- -- --
2019-03-28 17:00:00 -- -- -- -- -- -- -- -- --
2019-03-28 16:00:00 -- -- -- -- -- -- -- -- --
2019-03-28 15:00:00 -- -- -- -- -- -- -- -- --
2019-03-28 14:00:00 -- -- -- -- -- -- -- -- --
2019-03-28 13:00:00 -- -- -- -- -- -- -- -- --
2019-03-28 12:00:00 -- -- -- -- -- -- -- -- --
2019-03-28 11:00:00 -- -- -- -- -- -- -- -- --
2019-03-28 10:00:00 -- -- -- -- -- -- -- -- --
2019-03-28 09:00:00 -- -- -- -- -- -- -- -- --
2019-03-28 08:00:00 -- -- -- -- -- -- -- -- --
2019-03-28 07:00:00 -- -- -- -- -- -- -- -- --
2019-03-28 06:00:00 -- -- -- -- -- -- -- -- --
2019-03-28 05:00:00 -- -- -- -- -- -- -- -- --
2019-03-28 04:00:00 -- -- -- -- -- -- -- -- --
2019-03-28 03:00:00 -- -- -- -- -- -- -- -- --
2019-03-28 02:00:00 -- -- -- -- -- -- -- -- --
2019-03-28 01:00:00 -- -- -- -- -- -- -- -- --
2019-03-28 00:00:00 -- -- -- -- -- -- -- -- --
2019-03-27 23:00:00 -- -- -- -- -- -- -- -- --
2019-03-27 22:00:00 -- -- -- -- -- -- -- -- --
2019-03-27 21:00:00 -- -- -- -- -- -- -- -- --
2019-03-27 20:00:00 -- -- -- -- -- -- -- -- --
2019-03-27 19:00:00 -- -- -- -- -- -- -- -- --
2019-03-27 18:00:00 -- -- -- -- -- -- -- -- --
2019-03-27 17:00:00 -- -- -- -- -- -- -- -- --
2019-03-27 16:00:00 -- -- -- -- -- -- -- -- --
2019-03-27 15:00:00 -- -- -- -- -- -- -- -- --
2019-03-27 14:00:00 -- -- -- -- -- -- -- -- --
2019-03-27 13:00:00 -- -- -- -- -- -- -- -- --
2019-03-27 12:00:00 -- -- -- -- -- -- -- -- --
2019-03-27 11:00:00 -- -- -- -- -- -- -- -- --
2019-03-27 10:00:00 -- -- -- -- -- -- -- -- --
2019-03-27 09:00:00 -- -- -- -- -- -- -- -- --
2019-03-27 08:00:00 -- -- -- -- -- -- -- -- --
2019-03-27 07:00:00 -- -- -- -- -- -- -- -- --
2019-03-27 06:00:00 -- -- -- -- -- -- -- -- --
2019-03-27 05:00:00 -- -- -- -- -- -- -- -- --
2019-03-27 04:00:00 -- -- -- -- -- -- -- -- --
2019-03-27 03:00:00 -- -- -- -- -- -- -- -- --
2019-03-27 02:00:00 -- -- -- -- -- -- -- -- --
2019-03-27 01:00:00 -- -- -- -- -- -- -- -- --
2019-03-27 00:00:00 -- -- -- -- -- -- -- -- --
2019-03-26 23:00:00 -- -- -- -- -- -- -- -- --
2019-03-26 22:00:00 -- -- -- -- -- -- -- -- --
2019-03-26 21:00:00 -- -- -- -- -- -- -- -- --
2019-03-26 20:00:00 -- -- -- -- -- -- -- -- --
2019-03-26 19:00:00 -- -- -- -- -- -- -- -- --
2019-03-26 18:00:00 -- -- -- -- -- -- -- -- --
2019-03-26 17:00:00 -- -- -- -- -- -- -- -- --
2019-03-26 16:00:00 -- -- -- -- -- -- -- -- --
2019-03-26 15:00:00 -- -- -- -- -- -- -- -- --
2019-03-26 14:00:00 -- -- -- -- -- -- -- -- --
2019-03-26 13:00:00 -- -- -- -- -- -- -- -- --
2019-03-26 12:00:00 -- -- -- -- -- -- -- -- --
2019-03-26 11:00:00 -- -- -- -- -- -- -- -- --
2019-03-26 10:00:00 -- -- -- -- -- -- -- -- --
2019-03-26 09:00:00 -- -- -- -- -- -- -- -- --
2019-03-26 08:00:00 -- -- -- -- -- -- -- -- --
2019-03-26 07:00:00 -- -- -- -- -- -- -- -- --
2019-03-26 06:00:00 -- -- -- -- -- -- -- -- --
2019-03-26 05:00:00 -- -- -- -- -- -- -- -- --
2019-03-26 04:00:00 -- -- -- -- -- -- -- -- --
2019-03-26 03:00:00 -- -- -- -- -- -- -- -- --
2019-03-26 02:00:00 -- -- -- -- -- -- -- -- --
2019-03-26 01:00:00 -- -- -- -- -- -- -- -- --
2019-03-26 00:00:00 -- -- -- -- -- -- -- -- --
2019-03-25 23:00:00 -- -- -- -- -- -- -- -- --
2019-03-25 22:00:00 -- -- -- -- -- -- -- -- --
2019-03-25 21:00:00 -- -- -- -- -- -- -- -- --
2019-03-25 20:00:00 -- -- -- -- -- -- -- -- --
2019-03-25 19:00:00 -- -- -- -- -- -- -- -- --
2019-03-25 18:00:00 -- -- -- -- -- -- -- -- --
2019-03-25 17:00:00 -- -- -- -- -- -- -- -- --
2019-03-25 16:00:00 -- -- -- -- -- -- -- -- --
2019-03-25 15:00:00 -- -- -- -- -- -- -- -- --
2019-03-25 14:00:00 -- -- -- -- -- -- -- -- --
2019-03-25 13:00:00 -- -- -- -- -- -- -- -- --
2019-03-25 12:00:00 -- -- -- -- -- -- -- -- --
2019-03-25 11:00:00 -- -- -- -- -- -- -- -- --
2019-03-25 10:00:00 -- -- -- -- -- -- -- -- --
2019-03-25 09:00:00 -- -- -- -- -- -- -- -- --
2019-03-25 08:00:00 -- -- -- -- -- -- -- -- --
2019-03-25 07:00:00 -- -- -- -- -- -- -- -- --
2019-03-25 06:00:00 -- -- -- -- -- -- -- -- --
2019-03-25 05:00:00 -- -- -- -- -- -- -- -- --
2019-03-25 04:00:00 -- -- -- -- -- -- -- -- --
2019-03-25 03:00:00 -- -- -- -- -- -- -- -- --
2019-03-25 02:00:00 -- -- -- -- -- -- -- -- --
2019-03-25 01:00:00 -- -- -- -- -- -- -- -- --
2019-03-25 00:00:00 -- -- -- -- -- -- -- -- --
2019-03-24 23:00:00 -- -- -- -- -- -- -- -- --
2019-03-24 22:00:00 -- -- -- -- -- -- -- -- --
2019-03-24 21:00:00 -- -- -- -- -- -- -- -- --
2019-03-24 20:00:00 -- -- -- -- -- -- -- -- --
2019-03-24 19:00:00 -- -- -- -- -- -- -- -- --
2019-03-24 18:00:00 -- -- -- -- -- -- -- -- --
2019-03-24 17:00:00 -- -- -- -- -- -- -- -- --
2019-03-24 16:00:00 -- -- -- -- -- -- -- -- --
2019-03-24 15:00:00 -- -- -- -- -- -- -- -- --
2019-03-24 14:00:00 -- -- -- -- -- -- -- -- --
2019-03-24 13:00:00 -- -- -- -- -- -- -- -- --
2019-03-24 12:00:00 -- -- -- -- -- -- -- -- --
2019-03-24 11:00:00 -- -- -- -- -- -- -- -- --
2019-03-24 10:00:00 -- -- -- -- -- -- -- -- --
2019-03-24 09:00:00 -- -- -- -- -- -- -- -- --
2019-03-24 08:00:00 -- -- -- -- -- -- -- -- --
2019-03-24 07:00:00 -- -- -- -- -- -- -- -- --
2019-03-24 06:00:00 -- -- -- -- -- -- -- -- --
2019-03-24 05:00:00 -- -- -- -- -- -- -- -- --
2019-03-24 04:00:00 -- -- -- -- -- -- -- -- --
2019-03-24 03:00:00 -- -- -- -- -- -- -- -- --
2019-03-24 02:00:00 -- -- -- -- -- -- -- -- --
2019-03-24 01:00:00 -- -- -- -- -- -- -- -- --
2019-03-24 00:00:00 -- -- -- -- -- -- -- -- --
2019-03-23 23:00:00 -- -- -- -- -- -- -- -- --
2019-03-23 22:00:00 -- -- -- -- -- -- -- -- --
2019-03-23 21:00:00 -- -- -- -- -- -- -- -- --
2019-03-23 20:00:00 -- -- -- -- -- -- -- -- --
2019-03-23 19:00:00 -- -- -- -- -- -- -- -- --
2019-03-23 18:00:00 -- -- -- -- -- -- -- -- --
2019-03-23 17:00:00 -- -- -- -- -- -- -- -- --
2019-03-23 16:00:00 -- -- -- -- -- -- -- -- --
2019-03-23 15:00:00 -- -- -- -- -- -- -- -- --
2019-03-23 14:00:00 -- -- -- -- -- -- -- -- --
2019-03-23 13:00:00 -- -- -- -- -- -- -- -- --
2019-03-23 12:00:00 -- -- -- -- -- -- -- -- --
2019-03-23 11:00:00 -- -- -- -- -- -- -- -- --
2019-03-23 10:00:00 -- -- -- -- -- -- -- -- --
2019-03-23 09:00:00 -- -- -- -- -- -- -- -- --
2019-03-23 08:00:00 -- -- -- -- -- -- -- -- --
2019-03-23 07:00:00 -- -- -- -- -- -- -- -- --
2019-03-23 06:00:00 -- -- -- -- -- -- -- -- --
2019-03-23 05:00:00 -- -- -- -- -- -- -- -- --
2019-03-23 04:00:00 -- -- -- -- -- -- -- -- --
2019-03-23 03:00:00 -- -- -- -- -- -- -- -- --
2019-03-23 02:00:00 -- -- -- -- -- -- -- -- --
2019-03-23 01:00:00 -- -- -- -- -- -- -- -- --
2019-03-23 00:00:00 -- -- -- -- -- -- -- -- --
2019-03-22 23:00:00 -- -- -- -- -- -- -- -- --
2019-03-22 22:00:00 -- -- -- -- -- -- -- -- --
2019-03-22 21:00:00 -- -- -- -- -- -- -- -- --
2019-03-22 20:00:00 -- -- -- -- -- -- -- -- --
2019-03-22 19:00:00 -- -- -- -- -- -- -- -- --
2019-03-22 18:00:00 -- -- -- -- -- -- -- -- --
2019-03-22 17:00:00 -- -- -- -- -- -- -- -- --
2019-03-22 16:00:00 -- -- -- -- -- -- -- -- --
2019-03-22 15:00:00 -- -- -- -- -- -- -- -- --
2019-03-22 14:00:00 -- -- -- -- -- -- -- -- --
2019-03-22 13:00:00 -- -- -- -- -- -- -- -- --
2019-03-22 12:00:00 -- -- -- -- -- -- -- -- --
2019-03-22 11:00:00 -- -- -- -- -- -- -- -- --
2019-03-22 10:00:00 -- -- -- -- -- -- -- -- --
2019-03-22 09:00:00 -- -- -- -- -- -- -- -- --
2019-03-22 08:00:00 -- -- -- -- -- -- -- -- --
2019-03-22 07:00:00 -- -- -- -- -- -- -- -- --
2019-03-22 06:00:00 -- -- -- -- -- -- -- -- --
2019-03-22 05:00:00 -- -- -- -- -- -- -- -- --
2019-03-22 04:00:00 -- -- -- -- -- -- -- -- --
2019-03-22 03:00:00 -- -- -- -- -- -- -- -- --
2019-03-22 02:00:00 -- -- -- -- -- -- -- -- --
2019-03-22 01:00:00 -- -- -- -- -- -- -- -- --
2019-03-22 00:00:00 -- -- -- -- -- -- -- -- --
2019-03-21 23:00:00 -- -- -- -- -- -- -- -- --
2019-03-21 22:00:00 -- -- -- -- -- -- -- -- --
2019-03-21 21:00:00 -- -- -- -- -- -- -- -- --
2019-03-21 20:00:00 -- -- -- -- -- -- -- -- --
2019-03-21 19:00:00 -- -- -- -- -- -- -- -- --
2019-03-21 18:00:00 -- -- -- -- -- -- -- -- --
2019-03-21 17:00:00 -- -- -- -- -- -- -- -- --
2019-03-21 16:00:00 -- -- -- -- -- -- -- -- --
2019-03-21 15:00:00 -- -- -- -- -- -- -- -- --
2019-03-21 14:00:00 -- -- -- -- -- -- -- -- --
2019-03-21 13:00:00 -- -- -- -- -- -- -- -- --
2019-03-21 12:00:00 -- -- -- -- -- -- -- -- --
2019-03-21 11:00:00 -- -- -- -- -- -- -- -- --
2019-03-21 10:00:00 -- -- -- -- -- -- -- -- --
2019-03-21 09:00:00 -- -- -- -- -- -- -- -- --
2019-03-21 08:00:00 -- -- -- -- -- -- -- -- --
2019-03-21 07:00:00 -- -- -- -- -- -- -- -- --
2019-03-21 06:00:00 -- -- -- -- -- -- -- -- --
2019-03-21 05:00:00 -- -- -- -- -- -- -- -- --
2019-03-21 04:00:00 -- -- -- -- -- -- -- -- --
2019-03-21 03:00:00 -- -- -- -- -- -- -- -- --
2019-03-21 02:00:00 -- -- -- -- -- -- -- -- --
2019-03-21 01:00:00 -- -- -- -- -- -- -- -- --
2019-03-21 00:00:00 -- -- -- -- -- -- -- -- --